sensor_id;sensor_type;location;lat;lon;timestamp;P1;durP1;ratioP1;P2;durP2;ratioP2
79220;SDS011;72175;52.118;5.406;2023-12-20T00:01:01;2.55;;;0.20;;
79220;SDS011;72175;52.118;5.406;2023-12-20T00:03:28;3.13;;;0.20;;
79220;SDS011;72175;52.118;5.406;2023-12-20T00:06:07;2.20;;;0.22;;
79220;SDS011;72175;52.118;5.406;2023-12-20T00:08:33;2.05;;;0.20;;
79220;SDS011;72175;52.118;5.406;2023-12-20T00:11:00;1.40;;;0.10;;
79220;SDS011;72175;52.118;5.406;2023-12-20T00:13:26;1.65;;;0.22;;
79220;SDS011;72175;52.118;5.406;2023-12-20T00:15:53;2.80;;;0.13;;
79220;SDS011;72175;52.118;5.406;2023-12-20T00:18:20;1.92;;;0.20;;
79220;SDS011;72175;52.118;5.406;2023-12-20T00:20:46;1.63;;;0.20;;
79220;SDS011;72175;52.118;5.406;2023-12-20T00:23:13;1.63;;;0.20;;
79220;SDS011;72175;52.118;5.406;2023-12-20T00:25:40;1.85;;;0.20;;
79220;SDS011;72175;52.118;5.406;2023-12-20T00:28:06;2.65;;;0.30;;
79220;SDS011;72175;52.118;5.406;2023-12-20T00:30:33;1.95;;;0.20;;
79220;SDS011;72175;52.118;5.406;2023-12-20T00:33:00;2.35;;;0.20;;
79220;SDS011;72175;52.118;5.406;2023-12-20T00:35:27;2.40;;;0.20;;
79220;SDS011;72175;52.118;5.406;2023-12-20T00:37:53;1.17;;;0.10;;
79220;SDS011;72175;52.118;5.406;2023-12-20T00:40:20;1.77;;;0.30;;
79220;SDS011;72175;52.118;5.406;2023-12-20T00:42:47;2.20;;;0.85;;
79220;SDS011;72175;52.118;5.406;2023-12-20T00:45:14;1.70;;;0.50;;
79220;SDS011;72175;52.118;5.406;2023-12-20T00:47:40;2.38;;;0.22;;
79220;SDS011;72175;52.118;5.406;2023-12-20T00:50:08;1.60;;;0.20;;
79220;SDS011;72175;52.118;5.406;2023-12-20T00:52:35;1.15;;;0.10;;
79220;SDS011;72175;52.118;5.406;2023-12-20T00:55:02;2.10;;;0.10;;
79220;SDS011;72175;52.118;5.406;2023-12-20T00:57:30;1.92;;;0.28;;
79220;SDS011;72175;52.118;5.406;2023-12-20T00:59:57;1.33;;;0.20;;
79220;SDS011;72175;52.118;5.406;2023-12-20T01:02:24;1.77;;;0.20;;
79220;SDS011;72175;52.118;5.406;2023-12-20T01:04:50;2.30;;;0.20;;
79220;SDS011;72175;52.118;5.406;2023-12-20T01:07:17;2.03;;;0.20;;
79220;SDS011;72175;52.118;5.406;2023-12-20T01:09:45;1.77;;;0.20;;
79220;SDS011;72175;52.118;5.406;2023-12-20T01:12:12;2.60;;;0.32;;
79220;SDS011;72175;52.118;5.406;2023-12-20T01:14:38;1.60;;;0.10;;
79220;SDS011;72175;52.118;5.406;2023-12-20T01:17:07;2.35;;;0.20;;
79220;SDS011;72175;52.118;5.406;2023-12-20T01:19:34;2.35;;;0.10;;
79220;SDS011;72175;52.118;5.406;2023-12-20T01:22:00;1.08;;;0.20;;
79220;SDS011;72175;52.118;5.406;2023-12-20T01:24:27;2.63;;;0.50;;
79220;SDS011;72175;52.118;5.406;2023-12-20T01:26:53;1.77;;;0.22;;
79220;SDS011;72175;52.118;5.406;2023-12-20T01:29:22;2.10;;;0.22;;
79220;SDS011;72175;52.118;5.406;2023-12-20T01:31:48;1.48;;;0.20;;
79220;SDS011;72175;52.118;5.406;2023-12-20T01:34:15;1.33;;;0.20;;
79220;SDS011;72175;52.118;5.406;2023-12-20T01:36:42;1.85;;;0.32;;
79220;SDS011;72175;52.118;5.406;2023-12-20T01:39:09;1.10;;;0.10;;
79220;SDS011;72175;52.118;5.406;2023-12-20T01:41:50;2.80;;;0.20;;
79220;SDS011;72175;52.118;5.406;2023-12-20T01:44:19;1.48;;;0.30;;
79220;SDS011;72175;52.118;5.406;2023-12-20T01:46:45;1.55;;;0.13;;
79220;SDS011;72175;52.118;5.406;2023-12-20T01:49:13;0.93;;;0.10;;
79220;SDS011;72175;52.118;5.406;2023-12-20T01:51:41;1.17;;;0.30;;
79220;SDS011;72175;52.118;5.406;2023-12-20T01:54:09;1.70;;;0.13;;
79220;SDS011;72175;52.118;5.406;2023-12-20T01:56:35;1.98;;;0.20;;
79220;SDS011;72175;52.118;5.406;2023-12-20T01:59:02;3.58;;;0.10;;
79220;SDS011;72175;52.118;5.406;2023-12-20T02:01:30;2.13;;;0.40;;
79220;SDS011;72175;52.118;5.406;2023-12-20T02:03:58;1.05;;;0.10;;
79220;SDS011;72175;52.118;5.406;2023-12-20T02:06:28;1.85;;;0.10;;
79220;SDS011;72175;52.118;5.406;2023-12-20T02:08:57;2.88;;;0.50;;
79220;SDS011;72175;52.118;5.406;2023-12-20T02:11:25;1.55;;;0.10;;
79220;SDS011;72175;52.118;5.406;2023-12-20T02:13:53;1.48;;;0.20;;
79220;SDS011;72175;52.118;5.406;2023-12-20T02:16:19;1.75;;;0.22;;
79220;SDS011;72175;52.118;5.406;2023-12-20T02:18:47;2.40;;;0.20;;
79220;SDS011;72175;52.118;5.406;2023-12-20T02:21:14;1.25;;;0.30;;
79220;SDS011;72175;52.118;5.406;2023-12-20T02:23:41;1.35;;;0.30;;
79220;SDS011;72175;52.118;5.406;2023-12-20T02:26:07;1.77;;;0.30;;
79220;SDS011;72175;52.118;5.406;2023-12-20T02:28:34;0.88;;;0.20;;
79220;SDS011;72175;52.118;5.406;2023-12-20T02:31:01;1.55;;;0.20;;
79220;SDS011;72175;52.118;5.406;2023-12-20T02:33:28;1.55;;;0.20;;
79220;SDS011;72175;52.118;5.406;2023-12-20T02:35:54;1.23;;;0.13;;
79220;SDS011;72175;52.118;5.406;2023-12-20T02:38:21;2.22;;;0.22;;
79220;SDS011;72175;52.118;5.406;2023-12-20T02:40:48;1.13;;;0.13;;
79220;SDS011;72175;52.118;5.406;2023-12-20T02:43:15;1.33;;;0.20;;
79220;SDS011;72175;52.118;5.406;2023-12-20T02:45:42;1.17;;;0.20;;
79220;SDS011;72175;52.118;5.406;2023-12-20T02:48:09;1.55;;;0.25;;
79220;SDS011;72175;52.118;5.406;2023-12-20T02:50:35;1.15;;;0.28;;
79220;SDS011;72175;52.118;5.406;2023-12-20T02:53:02;1.63;;;0.13;;
79220;SDS011;72175;52.118;5.406;2023-12-20T02:55:28;1.45;;;0.13;;
79220;SDS011;72175;52.118;5.406;2023-12-20T02:57:55;1.02;;;0.10;;
79220;SDS011;72175;52.118;5.406;2023-12-20T03:00:22;2.38;;;0.10;;
79220;SDS011;72175;52.118;5.406;2023-12-20T03:02:48;1.38;;;0.20;;
79220;SDS011;72175;52.118;5.406;2023-12-20T03:05:15;2.40;;;0.13;;
79220;SDS011;72175;52.118;5.406;2023-12-20T03:07:42;2.35;;;0.20;;
79220;SDS011;72175;52.118;5.406;2023-12-20T03:10:09;1.85;;;0.70;;
79220;SDS011;72175;52.118;5.406;2023-12-20T03:12:45;1.58;;;0.20;;
79220;SDS011;72175;52.118;5.406;2023-12-20T03:15:12;1.17;;;0.10;;
79220;SDS011;72175;52.118;5.406;2023-12-20T03:17:38;1.63;;;0.13;;
79220;SDS011;72175;52.118;5.406;2023-12-20T03:20:05;1.92;;;0.22;;
79220;SDS011;72175;52.118;5.406;2023-12-20T03:22:33;1.10;;;0.20;;
79220;SDS011;72175;52.118;5.406;2023-12-20T03:24:59;1.05;;;0.10;;
79220;SDS011;72175;52.118;5.406;2023-12-20T03:27:27;0.88;;;0.10;;
79220;SDS011;72175;52.118;5.406;2023-12-20T03:29:54;1.00;;;0.10;;
79220;SDS011;72175;52.118;5.406;2023-12-20T03:32:20;0.90;;;0.10;;
79220;SDS011;72175;52.118;5.406;2023-12-20T03:34:47;2.17;;;0.22;;
79220;SDS011;72175;52.118;5.406;2023-12-20T03:37:14;1.13;;;0.20;;
79220;SDS011;72175;52.118;5.406;2023-12-20T03:39:41;1.45;;;0.20;;
79220;SDS011;72175;52.118;5.406;2023-12-20T03:42:08;2.10;;;0.25;;
79220;SDS011;72175;52.118;5.406;2023-12-20T03:44:37;1.35;;;0.13;;
79220;SDS011;72175;52.118;5.406;2023-12-20T03:47:05;1.27;;;0.28;;
79220;SDS011;72175;52.118;5.406;2023-12-20T03:49:32;1.38;;;0.20;;
79220;SDS011;72175;52.118;5.406;2023-12-20T03:51:59;1.08;;;0.15;;
79220;SDS011;72175;52.118;5.406;2023-12-20T03:54:25;0.98;;;0.20;;
79220;SDS011;72175;52.118;5.406;2023-12-20T03:56:52;1.27;;;0.22;;
79220;SDS011;72175;52.118;5.406;2023-12-20T03:59:18;2.33;;;0.30;;
79220;SDS011;72175;52.118;5.406;2023-12-20T04:01:45;2.47;;;0.57;;
79220;SDS011;72175;52.118;5.406;2023-12-20T04:04:13;1.85;;;0.13;;
79220;SDS011;72175;52.118;5.406;2023-12-20T04:06:40;1.77;;;0.20;;
79220;SDS011;72175;52.118;5.406;2023-12-20T04:09:07;2.08;;;0.25;;
79220;SDS011;72175;52.118;5.406;2023-12-20T04:11:36;1.88;;;0.30;;
79220;SDS011;72175;52.118;5.406;2023-12-20T04:14:03;1.55;;;0.30;;
79220;SDS011;72175;52.118;5.406;2023-12-20T04:16:31;1.92;;;0.13;;
79220;SDS011;72175;52.118;5.406;2023-12-20T04:18:57;1.58;;;0.10;;
79220;SDS011;72175;52.118;5.406;2023-12-20T04:21:24;1.13;;;0.13;;
79220;SDS011;72175;52.118;5.406;2023-12-20T04:23:50;1.83;;;0.20;;
79220;SDS011;72175;52.118;5.406;2023-12-20T04:26:17;2.65;;;0.13;;
79220;SDS011;72175;52.118;5.406;2023-12-20T04:28:43;1.90;;;0.32;;
79220;SDS011;72175;52.118;5.406;2023-12-20T04:31:10;1.10;;;0.20;;
79220;SDS011;72175;52.118;5.406;2023-12-20T04:33:36;0.85;;;0.20;;
79220;SDS011;72175;52.118;5.406;2023-12-20T04:36:03;1.67;;;0.13;;
79220;SDS011;72175;52.118;5.406;2023-12-20T04:38:30;2.72;;;0.68;;
79220;SDS011;72175;52.118;5.406;2023-12-20T04:40:57;2.63;;;0.20;;
79220;SDS011;72175;52.118;5.406;2023-12-20T04:43:23;1.13;;;0.30;;
79220;SDS011;72175;52.118;5.406;2023-12-20T04:45:51;1.77;;;0.20;;
79220;SDS011;72175;52.118;5.406;2023-12-20T04:48:20;1.33;;;0.30;;
79220;SDS011;72175;52.118;5.406;2023-12-20T04:50:47;1.35;;;0.13;;
79220;SDS011;72175;52.118;5.406;2023-12-20T04:53:13;1.58;;;0.15;;
79220;SDS011;72175;52.118;5.406;2023-12-20T04:55:39;1.27;;;0.10;;
79220;SDS011;72175;52.118;5.406;2023-12-20T04:58:06;1.52;;;0.30;;
79220;SDS011;72175;52.118;5.406;2023-12-20T05:00:33;1.23;;;0.13;;
79220;SDS011;72175;52.118;5.406;2023-12-20T05:02:59;1.20;;;0.20;;
79220;SDS011;72175;52.118;5.406;2023-12-20T05:05:26;0.98;;;0.10;;
79220;SDS011;72175;52.118;5.406;2023-12-20T05:07:52;2.05;;;0.47;;
79220;SDS011;72175;52.118;5.406;2023-12-20T05:10:19;1.60;;;0.30;;
79220;SDS011;72175;52.118;5.406;2023-12-20T05:12:46;2.40;;;0.20;;
79220;SDS011;72175;52.118;5.406;2023-12-20T05:15:12;1.20;;;0.10;;
79220;SDS011;72175;52.118;5.406;2023-12-20T05:17:39;1.58;;;0.30;;
79220;SDS011;72175;52.118;5.406;2023-12-20T05:20:06;1.75;;;0.20;;
79220;SDS011;72175;52.118;5.406;2023-12-20T05:22:33;1.55;;;0.50;;
79220;SDS011;72175;52.118;5.406;2023-12-20T05:25:00;2.05;;;0.32;;
79220;SDS011;72175;52.118;5.406;2023-12-20T05:27:26;1.90;;;0.35;;
79220;SDS011;72175;52.118;5.406;2023-12-20T05:29:53;3.05;;;0.52;;
79220;SDS011;72175;52.118;5.406;2023-12-20T05:32:23;2.22;;;0.10;;
79220;SDS011;72175;52.118;5.406;2023-12-20T05:34:50;2.28;;;0.22;;
79220;SDS011;72175;52.118;5.406;2023-12-20T05:37:16;1.63;;;0.10;;
79220;SDS011;72175;52.118;5.406;2023-12-20T05:39:43;1.23;;;0.13;;
79220;SDS011;72175;52.118;5.406;2023-12-20T05:42:10;1.02;;;0.17;;
79220;SDS011;72175;52.118;5.406;2023-12-20T05:44:36;1.67;;;0.30;;
79220;SDS011;72175;52.118;5.406;2023-12-20T05:47:03;1.30;;;0.10;;
79220;SDS011;72175;52.118;5.406;2023-12-20T05:49:30;1.38;;;0.10;;
79220;SDS011;72175;52.118;5.406;2023-12-20T05:51:56;1.38;;;0.10;;
79220;SDS011;72175;52.118;5.406;2023-12-20T05:54:23;1.83;;;0.22;;
79220;SDS011;72175;52.118;5.406;2023-12-20T05:56:50;1.63;;;0.20;;
79220;SDS011;72175;52.118;5.406;2023-12-20T05:59:16;1.40;;;0.30;;
79220;SDS011;72175;52.118;5.406;2023-12-20T06:01:43;2.25;;;0.10;;
79220;SDS011;72175;52.118;5.406;2023-12-20T06:04:10;1.42;;;0.13;;
79220;SDS011;72175;52.118;5.406;2023-12-20T06:06:40;1.70;;;0.20;;
79220;SDS011;72175;52.118;5.406;2023-12-20T06:09:10;1.15;;;0.30;;
79220;SDS011;72175;52.118;5.406;2023-12-20T06:11:37;1.58;;;0.20;;
79220;SDS011;72175;52.118;5.406;2023-12-20T06:14:03;1.98;;;0.20;;
79220;SDS011;72175;52.118;5.406;2023-12-20T06:16:30;2.35;;;0.22;;
79220;SDS011;72175;52.118;5.406;2023-12-20T06:18:57;1.42;;;0.43;;
79220;SDS011;72175;52.118;5.406;2023-12-20T06:21:23;1.55;;;0.10;;
79220;SDS011;72175;52.118;5.406;2023-12-20T06:23:50;1.48;;;0.30;;
79220;SDS011;72175;52.118;5.406;2023-12-20T06:26:17;0.73;;;0.10;;
79220;SDS011;72175;52.118;5.406;2023-12-20T06:28:43;0.68;;;0.10;;
79220;SDS011;72175;52.118;5.406;2023-12-20T06:31:10;1.30;;;0.10;;
79220;SDS011;72175;52.118;5.406;2023-12-20T06:33:36;1.25;;;0.15;;
79220;SDS011;72175;52.118;5.406;2023-12-20T06:36:03;0.85;;;0.10;;
79220;SDS011;72175;52.118;5.406;2023-12-20T06:38:30;0.90;;;0.10;;
79220;SDS011;72175;52.118;5.406;2023-12-20T06:40:56;1.23;;;0.10;;
79220;SDS011;72175;52.118;5.406;2023-12-20T06:43:24;0.73;;;0.13;;
79220;SDS011;72175;52.118;5.406;2023-12-20T06:46:11;1.67;;;0.20;;
79220;SDS011;72175;52.118;5.406;2023-12-20T06:48:39;1.80;;;0.25;;
79220;SDS011;72175;52.118;5.406;2023-12-20T06:51:10;1.60;;;0.20;;
79220;SDS011;72175;52.118;5.406;2023-12-20T06:53:39;1.63;;;0.40;;
79220;SDS011;72175;52.118;5.406;2023-12-20T06:56:05;1.05;;;0.10;;
79220;SDS011;72175;52.118;5.406;2023-12-20T06:58:35;1.63;;;0.22;;
79220;SDS011;72175;52.118;5.406;2023-12-20T07:01:03;1.42;;;0.75;;
79220;SDS011;72175;52.118;5.406;2023-12-20T07:03:30;1.58;;;0.20;;
79220;SDS011;72175;52.118;5.406;2023-12-20T07:05:57;2.40;;;0.10;;
79220;SDS011;72175;52.118;5.406;2023-12-20T07:08:24;2.40;;;0.55;;
79220;SDS011;72175;52.118;5.406;2023-12-20T07:10:50;1.40;;;0.28;;
79220;SDS011;72175;52.118;5.406;2023-12-20T07:13:17;1.85;;;0.10;;
79220;SDS011;72175;52.118;5.406;2023-12-20T07:15:43;1.38;;;0.10;;
79220;SDS011;72175;52.118;5.406;2023-12-20T07:18:10;1.67;;;0.20;;
79220;SDS011;72175;52.118;5.406;2023-12-20T07:20:37;1.92;;;0.40;;
79220;SDS011;72175;52.118;5.406;2023-12-20T07:23:04;1.63;;;0.20;;
79220;SDS011;72175;52.118;5.406;2023-12-20T07:25:30;1.63;;;0.20;;
79220;SDS011;72175;52.118;5.406;2023-12-20T07:27:59;0.93;;;0.17;;
79220;SDS011;72175;52.118;5.406;2023-12-20T07:30:26;1.52;;;0.10;;
79220;SDS011;72175;52.118;5.406;2023-12-20T07:32:52;2.13;;;0.20;;
79220;SDS011;72175;52.118;5.406;2023-12-20T07:35:19;2.10;;;0.10;;
79220;SDS011;72175;52.118;5.406;2023-12-20T07:37:46;2.50;;;0.52;;
79220;SDS011;72175;52.118;5.406;2023-12-20T07:40:13;3.10;;;0.30;;
79220;SDS011;72175;52.118;5.406;2023-12-20T07:42:39;2.45;;;0.43;;
79220;SDS011;72175;52.118;5.406;2023-12-20T07:45:06;1.25;;;0.10;;
79220;SDS011;72175;52.118;5.406;2023-12-20T07:47:33;5.30;;;0.70;;
79220;SDS011;72175;52.118;5.406;2023-12-20T07:50:00;4.25;;;0.40;;
79220;SDS011;72175;52.118;5.406;2023-12-20T07:52:26;5.90;;;0.55;;
79220;SDS011;72175;52.118;5.406;2023-12-20T07:54:53;3.33;;;0.20;;
79220;SDS011;72175;52.118;5.406;2023-12-20T07:57:20;2.80;;;0.20;;
79220;SDS011;72175;52.118;5.406;2023-12-20T07:59:46;1.65;;;0.22;;
79220;SDS011;72175;52.118;5.406;2023-12-20T08:02:13;1.42;;;0.13;;
79220;SDS011;72175;52.118;5.406;2023-12-20T08:04:39;1.95;;;0.20;;
79220;SDS011;72175;52.118;5.406;2023-12-20T08:07:07;3.50;;;0.20;;
79220;SDS011;72175;52.118;5.406;2023-12-20T08:09:33;1.00;;;0.20;;
79220;SDS011;72175;52.118;5.406;2023-12-20T08:12:02;2.10;;;0.10;;
79220;SDS011;72175;52.118;5.406;2023-12-20T08:14:29;3.40;;;0.22;;
79220;SDS011;72175;52.118;5.406;2023-12-20T08:16:56;2.92;;;0.10;;
79220;SDS011;72175;52.118;5.406;2023-12-20T08:19:22;3.45;;;0.15;;
79220;SDS011;72175;52.118;5.406;2023-12-20T08:21:49;2.17;;;0.30;;
79220;SDS011;72175;52.118;5.406;2023-12-20T08:24:15;2.67;;;0.13;;
79220;SDS011;72175;52.118;5.406;2023-12-20T08:26:42;3.05;;;0.20;;
79220;SDS011;72175;52.118;5.406;2023-12-20T08:29:10;4.60;;;0.22;;
79220;SDS011;72175;52.118;5.406;2023-12-20T08:31:39;3.97;;;0.20;;
79220;SDS011;72175;52.118;5.406;2023-12-20T08:34:05;1.92;;;0.17;;
79220;SDS011;72175;52.118;5.406;2023-12-20T08:36:34;3.70;;;0.38;;
79220;SDS011;72175;52.118;5.406;2023-12-20T08:39:01;5.43;;;0.38;;
79220;SDS011;72175;52.118;5.406;2023-12-20T08:41:28;3.35;;;0.40;;
79220;SDS011;72175;52.118;5.406;2023-12-20T08:43:54;2.50;;;0.20;;
79220;SDS011;72175;52.118;5.406;2023-12-20T08:46:20;2.33;;;0.40;;
79220;SDS011;72175;52.118;5.406;2023-12-20T08:48:47;3.45;;;0.20;;
79220;SDS011;72175;52.118;5.406;2023-12-20T08:51:14;4.85;;;0.45;;
79220;SDS011;72175;52.118;5.406;2023-12-20T08:53:41;3.63;;;0.30;;
79220;SDS011;72175;52.118;5.406;2023-12-20T08:56:08;4.35;;;0.30;;
79220;SDS011;72175;52.118;5.406;2023-12-20T08:58:34;4.30;;;1.05;;
79220;SDS011;72175;52.118;5.406;2023-12-20T09:01:02;3.60;;;0.20;;
79220;SDS011;72175;52.118;5.406;2023-12-20T09:03:29;4.00;;;0.55;;
79220;SDS011;72175;52.118;5.406;2023-12-20T09:05:55;1.67;;;0.20;;
79220;SDS011;72175;52.118;5.406;2023-12-20T09:08:22;5.70;;;0.70;;
79220;SDS011;72175;52.118;5.406;2023-12-20T09:10:48;3.67;;;0.25;;
79220;SDS011;72175;52.118;5.406;2023-12-20T09:13:15;1.80;;;0.43;;
79220;SDS011;72175;52.118;5.406;2023-12-20T09:15:41;3.47;;;0.30;;
79220;SDS011;72175;52.118;5.406;2023-12-20T09:18:08;3.85;;;0.43;;
79220;SDS011;72175;52.118;5.406;2023-12-20T09:20:35;3.38;;;0.28;;
79220;SDS011;72175;52.118;5.406;2023-12-20T09:23:02;3.13;;;0.40;;
79220;SDS011;72175;52.118;5.406;2023-12-20T09:25:28;5.80;;;0.30;;
79220;SDS011;72175;52.118;5.406;2023-12-20T09:27:56;2.80;;;0.22;;
79220;SDS011;72175;52.118;5.406;2023-12-20T09:30:22;3.42;;;0.20;;
79220;SDS011;72175;52.118;5.406;2023-12-20T09:32:53;1.67;;;0.22;;
79220;SDS011;72175;52.118;5.406;2023-12-20T09:35:21;4.75;;;0.30;;
79220;SDS011;72175;52.118;5.406;2023-12-20T09:37:48;3.45;;;0.32;;
79220;SDS011;72175;52.118;5.406;2023-12-20T09:40:17;6.25;;;0.30;;
79220;SDS011;72175;52.118;5.406;2023-12-20T09:42:48;5.45;;;0.50;;
79220;SDS011;72175;52.118;5.406;2023-12-20T09:45:22;5.40;;;0.43;;
79220;SDS011;72175;52.118;5.406;2023-12-20T09:47:50;5.47;;;0.30;;
79220;SDS011;72175;52.118;5.406;2023-12-20T09:50:19;6.88;;;0.50;;
79220;SDS011;72175;52.118;5.406;2023-12-20T09:52:51;5.22;;;0.30;;
79220;SDS011;72175;52.118;5.406;2023-12-20T09:55:19;6.53;;;0.68;;
79220;SDS011;72175;52.118;5.406;2023-12-20T09:57:50;4.85;;;0.28;;
79220;SDS011;72175;52.118;5.406;2023-12-20T10:00:17;4.88;;;0.40;;
79220;SDS011;72175;52.118;5.406;2023-12-20T10:02:50;7.43;;;0.40;;
79220;SDS011;72175;52.118;5.406;2023-12-20T10:05:35;5.75;;;0.40;;
79220;SDS011;72175;52.118;5.406;2023-12-20T10:08:02;5.95;;;0.40;;
79220;SDS011;72175;52.118;5.406;2023-12-20T10:10:29;5.53;;;0.20;;
79220;SDS011;72175;52.118;5.406;2023-12-20T10:13:11;6.30;;;1.08;;
79220;SDS011;72175;52.118;5.406;2023-12-20T10:15:39;5.63;;;0.40;;
79220;SDS011;72175;52.118;5.406;2023-12-20T10:18:07;3.95;;;0.30;;
79220;SDS011;72175;52.118;5.406;2023-12-20T10:20:34;5.10;;;0.50;;
79220;SDS011;72175;52.118;5.406;2023-12-20T10:23:02;3.88;;;0.30;;
79220;SDS011;72175;52.118;5.406;2023-12-20T10:25:29;4.22;;;0.20;;
79220;SDS011;72175;52.118;5.406;2023-12-20T10:28:14;7.90;;;0.52;;
79220;SDS011;72175;52.118;5.406;2023-12-20T10:30:46;2.72;;;0.30;;
79220;SDS011;72175;52.118;5.406;2023-12-20T10:33:13;2.83;;;0.57;;
79220;SDS011;72175;52.118;5.406;2023-12-20T10:35:40;4.00;;;0.50;;
79220;SDS011;72175;52.118;5.406;2023-12-20T10:38:11;4.10;;;0.40;;
79220;SDS011;72175;52.118;5.406;2023-12-20T10:40:40;4.07;;;0.22;;
79220;SDS011;72175;52.118;5.406;2023-12-20T10:43:07;2.80;;;0.28;;
79220;SDS011;72175;52.118;5.406;2023-12-20T10:45:34;4.93;;;0.20;;
79220;SDS011;72175;52.118;5.406;2023-12-20T10:48:01;3.47;;;0.20;;
79220;SDS011;72175;52.118;5.406;2023-12-20T10:50:28;4.40;;;0.40;;
79220;SDS011;72175;52.118;5.406;2023-12-20T10:52:56;4.95;;;0.38;;
79220;SDS011;72175;52.118;5.406;2023-12-20T10:55:24;4.55;;;0.70;;
79220;SDS011;72175;52.118;5.406;2023-12-20T10:57:52;5.22;;;0.30;;
79220;SDS011;72175;52.118;5.406;2023-12-20T11:00:25;5.40;;;0.30;;
79220;SDS011;72175;52.118;5.406;2023-12-20T11:02:52;4.25;;;0.20;;
79220;SDS011;72175;52.118;5.406;2023-12-20T11:08:24;4.15;;;0.20;;
79220;SDS011;72175;52.118;5.406;2023-12-20T11:11:12;6.32;;;0.50;;
79220;SDS011;72175;52.118;5.406;2023-12-20T11:13:55;11.38;;;0.65;;
79220;SDS011;72175;52.118;5.406;2023-12-20T11:19:06;3.15;;;0.20;;
79220;SDS011;72175;52.118;5.406;2023-12-20T11:21:33;5.65;;;0.43;;
79220;SDS011;72175;52.118;5.406;2023-12-20T11:23:59;2.97;;;0.25;;
79220;SDS011;72175;52.118;5.406;2023-12-20T11:26:27;6.20;;;0.70;;
79220;SDS011;72175;52.118;5.406;2023-12-20T11:31:55;5.22;;;0.25;;
79220;SDS011;72175;52.118;5.406;2023-12-20T11:34:22;1.67;;;0.20;;
79220;SDS011;72175;52.118;5.406;2023-12-20T11:36:57;7.90;;;0.40;;
79220;SDS011;72175;52.118;5.406;2023-12-20T11:39:26;3.83;;;0.60;;
79220;SDS011;72175;52.118;5.406;2023-12-20T11:41:54;5.25;;;0.30;;
79220;SDS011;72175;52.118;5.406;2023-12-20T11:44:25;3.95;;;0.47;;
79220;SDS011;72175;52.118;5.406;2023-12-20T11:46:52;5.18;;;0.25;;
79220;SDS011;72175;52.118;5.406;2023-12-20T11:49:23;5.60;;;0.40;;
79220;SDS011;72175;52.118;5.406;2023-12-20T11:51:51;8.02;;;0.35;;
79220;SDS011;72175;52.118;5.406;2023-12-20T11:54:18;1.70;;;0.20;;
79220;SDS011;72175;52.118;5.406;2023-12-20T11:56:44;5.47;;;0.50;;
79220;SDS011;72175;52.118;5.406;2023-12-20T11:59:12;2.90;;;0.22;;
79220;SDS011;72175;52.118;5.406;2023-12-20T12:01:49;3.90;;;0.68;;
79220;SDS011;72175;52.118;5.406;2023-12-20T12:04:21;4.47;;;0.30;;
79220;SDS011;72175;52.118;5.406;2023-12-20T12:06:48;3.58;;;0.20;;
79220;SDS011;72175;52.118;5.406;2023-12-20T12:09:14;6.80;;;0.28;;
79220;SDS011;72175;52.118;5.406;2023-12-20T12:11:41;7.40;;;0.40;;
79220;SDS011;72175;52.118;5.406;2023-12-20T12:14:08;3.50;;;0.10;;
79220;SDS011;72175;52.118;5.406;2023-12-20T12:16:34;4.82;;;0.30;;
79220;SDS011;72175;52.118;5.406;2023-12-20T12:19:01;4.65;;;0.20;;
79220;SDS011;72175;52.118;5.406;2023-12-20T12:21:28;3.63;;;0.32;;
79220;SDS011;72175;52.118;5.406;2023-12-20T12:24:09;5.57;;;0.20;;
79220;SDS011;72175;52.118;5.406;2023-12-20T12:26:37;4.38;;;0.20;;
79220;SDS011;72175;52.118;5.406;2023-12-20T12:29:06;3.00;;;0.30;;
79220;SDS011;72175;52.118;5.406;2023-12-20T12:31:34;7.18;;;0.65;;
79220;SDS011;72175;52.118;5.406;2023-12-20T12:34:00;3.47;;;0.38;;
79220;SDS011;72175;52.118;5.406;2023-12-20T12:36:28;4.50;;;0.30;;
79220;SDS011;72175;52.118;5.406;2023-12-20T12:38:56;2.97;;;0.32;;
79220;SDS011;72175;52.118;5.406;2023-12-20T12:41:24;5.28;;;0.75;;
79220;SDS011;72175;52.118;5.406;2023-12-20T12:43:50;2.80;;;0.22;;
79220;SDS011;72175;52.118;5.406;2023-12-20T12:46:17;4.60;;;0.25;;
79220;SDS011;72175;52.118;5.406;2023-12-20T12:48:43;3.45;;;0.17;;
79220;SDS011;72175;52.118;5.406;2023-12-20T12:51:12;3.80;;;0.10;;
79220;SDS011;72175;52.118;5.406;2023-12-20T12:53:40;5.85;;;0.50;;
79220;SDS011;72175;52.118;5.406;2023-12-20T12:56:06;5.10;;;0.32;;
79220;SDS011;72175;52.118;5.406;2023-12-20T12:58:34;5.47;;;0.60;;
79220;SDS011;72175;52.118;5.406;2023-12-20T13:01:00;4.88;;;0.30;;
79220;SDS011;72175;52.118;5.406;2023-12-20T13:03:27;2.88;;;0.40;;
79220;SDS011;72175;52.118;5.406;2023-12-20T13:05:54;4.88;;;0.93;;
79220;SDS011;72175;52.118;5.406;2023-12-20T13:08:21;3.60;;;0.20;;
79220;SDS011;72175;52.118;5.406;2023-12-20T13:10:48;4.32;;;0.30;;
79220;SDS011;72175;52.118;5.406;2023-12-20T13:13:15;3.30;;;0.50;;
79220;SDS011;72175;52.118;5.406;2023-12-20T13:15:41;6.18;;;0.40;;
79220;SDS011;72175;52.118;5.406;2023-12-20T13:18:08;4.75;;;0.28;;
79220;SDS011;72175;52.118;5.406;2023-12-20T13:20:34;3.65;;;0.13;;
79220;SDS011;72175;52.118;5.406;2023-12-20T13:23:01;3.33;;;0.20;;
79220;SDS011;72175;52.118;5.406;2023-12-20T13:25:27;10.25;;;0.57;;
79220;SDS011;72175;52.118;5.406;2023-12-20T13:27:54;9.00;;;0.55;;
79220;SDS011;72175;52.118;5.406;2023-12-20T13:30:21;2.17;;;0.13;;
79220;SDS011;72175;52.118;5.406;2023-12-20T13:32:48;3.83;;;0.30;;
79220;SDS011;72175;52.118;5.406;2023-12-20T13:35:15;6.40;;;0.40;;
79220;SDS011;72175;52.118;5.406;2023-12-20T13:37:42;4.78;;;0.40;;
79220;SDS011;72175;52.118;5.406;2023-12-20T13:40:09;3.17;;;0.65;;
79220;SDS011;72175;52.118;5.406;2023-12-20T13:42:35;2.45;;;0.20;;
79220;SDS011;72175;52.118;5.406;2023-12-20T13:45:02;5.25;;;0.40;;
79220;SDS011;72175;52.118;5.406;2023-12-20T13:47:31;4.93;;;0.25;;
79220;SDS011;72175;52.118;5.406;2023-12-20T13:49:58;1.65;;;0.20;;
79220;SDS011;72175;52.118;5.406;2023-12-20T13:52:25;2.88;;;0.20;;
79220;SDS011;72175;52.118;5.406;2023-12-20T13:54:51;3.08;;;0.20;;
79220;SDS011;72175;52.118;5.406;2023-12-20T13:57:18;4.75;;;0.38;;
79220;SDS011;72175;52.118;5.406;2023-12-20T14:00:04;4.72;;;0.85;;
79220;SDS011;72175;52.118;5.406;2023-12-20T14:02:31;4.47;;;0.25;;
79220;SDS011;72175;52.118;5.406;2023-12-20T14:04:57;4.03;;;0.20;;
79220;SDS011;72175;52.118;5.406;2023-12-20T14:07:24;3.05;;;0.45;;
79220;SDS011;72175;52.118;5.406;2023-12-20T14:09:51;3.55;;;0.28;;
79220;SDS011;72175;52.118;5.406;2023-12-20T14:12:17;3.75;;;0.38;;
79220;SDS011;72175;52.118;5.406;2023-12-20T14:14:44;2.08;;;0.30;;
79220;SDS011;72175;52.118;5.406;2023-12-20T14:17:11;7.50;;;0.40;;
79220;SDS011;72175;52.118;5.406;2023-12-20T14:19:37;5.18;;;0.80;;
79220;SDS011;72175;52.118;5.406;2023-12-20T14:22:04;3.90;;;0.25;;
79220;SDS011;72175;52.118;5.406;2023-12-20T14:24:30;3.58;;;0.22;;
79220;SDS011;72175;52.118;5.406;2023-12-20T14:26:57;4.07;;;0.52;;
79220;SDS011;72175;52.118;5.406;2023-12-20T14:29:24;3.60;;;0.20;;
79220;SDS011;72175;52.118;5.406;2023-12-20T14:31:52;3.92;;;0.22;;
79220;SDS011;72175;52.118;5.406;2023-12-20T14:34:19;4.72;;;0.22;;
79220;SDS011;72175;52.118;5.406;2023-12-20T14:36:47;4.82;;;0.30;;
79220;SDS011;72175;52.118;5.406;2023-12-20T14:39:14;6.50;;;0.60;;
79220;SDS011;72175;52.118;5.406;2023-12-20T14:41:41;9.63;;;0.73;;
79220;SDS011;72175;52.118;5.406;2023-12-20T14:44:08;4.90;;;0.40;;
79220;SDS011;72175;52.118;5.406;2023-12-20T14:46:34;5.22;;;0.38;;
79220;SDS011;72175;52.118;5.406;2023-12-20T14:49:02;5.13;;;0.47;;
79220;SDS011;72175;52.118;5.406;2023-12-20T14:51:29;8.82;;;0.63;;
79220;SDS011;72175;52.118;5.406;2023-12-20T14:53:55;8.68;;;0.60;;
79220;SDS011;72175;52.118;5.406;2023-12-20T14:56:25;5.70;;;0.50;;
79220;SDS011;72175;52.118;5.406;2023-12-20T14:58:52;6.55;;;0.63;;